Time;durP1;ratioP1;P1;durP2;ratioP2;P2;SDS_P1;SDS_P2;PMS_P1;PMS_P2;Temp;Humidity;BMP_temperature;BMP_pressure;BME280_temperature;BME280_humidity;BME280_pressure;Samples;Min_cycle;Max_cycle;Signal;HPM_P1;HPM_P2
2022/12/11 00:00:44;;;;;;;69.60;29.03;;;2.60;99.90;;;;;;4998575;28;20803;-76
2022/12/11 00:03:10;;;;;;;63.47;28.47;;;2.60;99.90;;;;;;4998358;28;20468;-76
2022/12/11 00:05:39;;;;;;;63.10;28.57;;;2.60;99.90;;;;;;4997174;28;20497;-76
2022/12/11 00:08:06;;;;;;;60.03;27.80;;;2.50;99.90;;;;;;4997880;28;20448;-76
2022/12/11 00:10:34;;;;;;;60.00;29.03;;;2.50;99.90;;;;;;4997681;28;20452;-77
2022/12/11 00:13:03;;;;;;;71.00;29.80;;;2.40;99.90;;;;;;4997991;28;20455;-76
2022/12/11 00:15:30;;;;;;;62.63;28.20;;;2.40;99.90;;;;;;4997618;28;20465;-76
2022/12/11 00:17:57;;;;;;;64.70;29.67;;;2.40;99.90;;;;;;4996556;28;20450;-76
2022/12/11 00:20:23;;;;;;;57.13;25.93;;;2.40;99.90;;;;;;4996657;28;20871;-76
2022/12/11 00:22:50;;;;;;;54.43;28.07;;;2.40;99.90;;;;;;4997970;28;20459;-76
2022/12/11 00:25:17;;;;;;;54.90;27.30;;;2.40;99.90;;;;;;4996507;28;20511;-77
2022/12/11 00:27:46;;;;;;;46.77;22.77;;;2.50;99.90;;;;;;4996559;28;20437;-77
2022/12/11 00:30:14;;;;;;;56.63;26.00;;;2.50;99.90;;;;;;4995548;28;20450;-76
2022/12/11 00:32:41;;;;;;;54.07;24.80;;;2.50;99.90;;;;;;4995684;28;20448;-76
2022/12/11 00:35:09;;;;;;;57.03;24.00;;;2.40;99.90;;;;;;4995234;28;20470;-76
2022/12/11 00:37:36;;;;;;;53.80;24.40;;;2.30;99.90;;;;;;4995310;28;20444;-77
2022/12/11 00:40:03;;;;;;;58.90;25.57;;;2.30;99.90;;;;;;4995129;28;20459;-76
2022/12/11 00:42:30;;;;;;;65.00;24.73;;;2.40;99.90;;;;;;4994948;28;20453;-76
2022/12/11 00:44:58;;;;;;;64.50;26.07;;;2.30;99.90;;;;;;4995168;28;20981;-76
2022/12/11 00:47:25;;;;;;;57.83;26.33;;;2.20;99.90;;;;;;4994844;28;20472;-76
2022/12/11 00:49:51;;;;;;;66.37;27.43;;;2.20;99.90;;;;;;4995292;28;20445;-76
2022/12/11 00:52:18;;;;;;;53.03;24.50;;;2.30;99.90;;;;;;4994744;28;20449;-76
2022/12/11 00:54:45;;;;;;;71.30;27.67;;;2.30;99.90;;;;;;4996531;28;20870;-76
2022/12/11 00:57:12;;;;;;;65.13;25.13;;;2.30;99.90;;;;;;4995876;28;20448;-76
2022/12/11 00:59:39;;;;;;;57.23;24.53;;;2.30;99.90;;;;;;5002655;28;20449;-76
2022/12/11 01:02:07;;;;;;;62.27;28.00;;;2.20;99.90;;;;;;5008633;28;20441;-76
2022/12/11 01:04:36;;;;;;;66.20;26.60;;;2.30;99.90;;;;;;5005889;28;20470;-76
2022/12/11 01:07:02;;;;;;;67.43;26.97;;;2.30;99.90;;;;;;4997521;28;20839;-76
2022/12/11 01:12:22;;;;;;;59.57;27.07;;;2.50;99.90;;;;;;4983877;28;21015;-76
2022/12/11 01:14:48;;;;;;;64.30;28.50;;;2.50;99.90;;;;;;4997223;28;20476;-77
2022/12/11 01:17:16;;;;;;;62.63;27.50;;;2.60;99.90;;;;;;4995868;28;20460;-76
2022/12/11 01:19:43;;;;;;;63.47;28.23;;;2.60;99.90;;;;;;4995570;28;20452;-76
2022/12/11 01:22:10;;;;;;;67.57;29.30;;;2.70;99.90;;;;;;4994897;28;20445;-76
2022/12/11 01:24:36;;;;;;;57.67;27.57;;;2.70;99.90;;;;;;5014211;28;20506;-76
2022/12/11 01:27:04;;;;;;;59.43;26.37;;;2.70;99.90;;;;;;4999100;28;20489;-77
2022/12/11 01:29:30;;;;;;;64.50;28.07;;;2.70;99.90;;;;;;4995495;28;20467;-77
2022/12/11 01:31:57;;;;;;;55.37;25.80;;;2.80;99.90;;;;;;4995435;28;20469;-76
2022/12/11 01:34:25;;;;;;;69.03;26.67;;;2.70;99.90;;;;;;4994891;28;20468;-77
2022/12/11 01:36:53;;;;;;;57.90;27.83;;;2.60;99.90;;;;;;4995455;28;20542;-77
2022/12/11 01:39:19;;;;;;;55.80;26.93;;;2.60;99.90;;;;;;4994947;28;20452;-77
2022/12/11 01:41:46;;;;;;;55.03;26.00;;;2.60;99.90;;;;;;4996736;28;20464;-77
2022/12/11 01:44:46;;;;;;;53.77;23.70;;;2.60;99.90;;;;;;4998483;28;20489;-77
2022/12/11 01:47:13;;;;;;;53.20;24.27;;;2.60;99.90;;;;;;4998281;28;20496;-77
2022/12/11 01:49:41;;;;;;;64.90;25.30;;;2.60;99.90;;;;;;4998308;28;20453;-77
2022/12/11 01:52:12;;;;;;;49.47;24.43;;;2.60;99.90;;;;;;4998115;28;20451;-76
2022/12/11 01:54:39;;;;;;;50.53;23.83;;;2.60;99.90;;;;;;4997985;28;20518;-77
2022/12/11 01:57:08;;;;;;;52.10;23.00;;;2.60;99.90;;;;;;4998252;28;20453;-78
2022/12/11 01:59:38;;;;;;;52.43;24.07;;;2.60;99.90;;;;;;4998105;28;20463;-77
2022/12/11 02:02:08;;;;;;;43.73;23.70;;;2.60;99.90;;;;;;4997834;28;20539;-77
2022/12/11 02:04:37;;;;;;;54.30;23.93;;;2.70;99.90;;;;;;4997759;28;20901;-77
2022/12/11 02:07:05;;;;;;;50.40;21.67;;;2.70;99.90;;;;;;4998070;28;20591;-77
2022/12/11 02:09:35;;;;;;;48.80;24.83;;;2.80;99.90;;;;;;4997810;28;20862;-77
2022/12/11 02:12:05;;;;;;;52.70;24.50;;;2.90;99.90;;;;;;4997668;28;20452;-76
2022/12/11 02:14:39;;;;;;;51.17;24.40;;;2.90;99.90;;;;;;4998572;28;20472;-76
2022/12/11 02:17:12;;;;;;;51.50;25.77;;;2.80;99.90;;;;;;4997215;28;20929;-77
2022/12/11 02:19:55;;;;;;;56.30;23.70;;;2.80;99.90;;;;;;4997915;28;20806;-77
2022/12/11 02:22:33;;;;;;;60.80;26.23;;;2.80;99.90;;;;;;4997639;28;20442;-76
2022/12/11 02:25:10;;;;;;;53.57;25.67;;;2.80;99.90;;;;;;4997331;28;20538;-77
2022/12/11 02:27:44;;;;;;;50.90;23.20;;;2.70;99.90;;;;;;4997457;28;20424;-76
2022/12/11 02:30:14;;;;;;;47.90;25.00;;;2.70;99.90;;;;;;4998224;28;20794;-77
2022/12/11 02:32:46;;;;;;;49.60;22.40;;;2.80;99.90;;;;;;4997404;28;20548;-76
2022/12/11 02:35:17;;;;;;;47.00;23.30;;;2.80;99.90;;;;;;4997002;28;21040;-76
2022/12/11 02:37:46;;;;;;;57.07;25.70;;;2.80;99.90;;;;;;4997137;28;20440;-76
2022/12/11 02:40:16;;;;;;;55.37;24.47;;;2.90;99.90;;;;;;4997442;28;20467;-77
2022/12/11 02:42:45;;;;;;;45.03;25.43;;;2.90;99.90;;;;;;4996931;28;20515;-77
2022/12/11 02:45:15;;;;;;;48.53;22.20;;;2.90;99.90;;;;;;4997301;28;20472;-76
2022/12/11 02:47:44;;;;;;;45.43;24.20;;;2.80;99.80;;;;;;4997259;28;20425;-76
2022/12/11 02:50:15;;;;;;;52.57;26.00;;;2.80;99.90;;;;;;4998744;28;20454;-77
2022/12/11 02:52:42;;;;;;;45.73;22.03;;;2.80;99.90;;;;;;5009170;28;20429;-76
2022/12/11 02:55:12;;;;;;;47.73;23.03;;;2.80;99.90;;;;;;5012422;28;20475;-76
2022/12/11 02:57:44;;;;;;;43.83;22.17;;;2.80;99.90;;;;;;4999747;28;20445;-76
2022/12/11 03:00:14;;;;;;;43.93;21.97;;;2.90;99.90;;;;;;4997545;28;20436;-77
2022/12/11 03:02:42;;;;;;;42.23;20.63;;;2.80;99.90;;;;;;4997360;28;20796;-77
2022/12/11 03:05:10;;;;;;;37.20;19.47;;;2.90;99.90;;;;;;4996474;28;20469;-77
2022/12/11 03:07:40;;;;;;;43.60;20.60;;;2.90;99.70;;;;;;4996644;28;20492;-77
2022/12/11 03:10:09;;;;;;;44.40;20.93;;;2.80;99.60;;;;;;4997097;28;20472;-77
2022/12/11 03:12:38;;;;;;;42.50;20.47;;;2.80;99.60;;;;;;4996387;28;20537;-77
2022/12/11 03:15:08;;;;;;;41.13;20.00;;;2.70;99.60;;;;;;4996822;28;20493;-77
2022/12/11 03:17:44;;;;;;;38.47;18.50;;;2.70;99.80;;;;;;4996103;28;20511;-78
2022/12/11 03:20:17;;;;;;;38.90;20.93;;;2.80;99.80;;;;;;4996247;28;20443;-77
2022/12/11 03:22:51;;;;;;;42.33;20.03;;;2.80;99.80;;;;;;4996344;28;20806;-77
2022/12/11 03:25:22;;;;;;;41.30;21.03;;;2.80;99.80;;;;;;4996065;28;21011;-77
2022/12/11 03:27:55;;;;;;;41.63;20.93;;;2.80;99.90;;;;;;4995988;28;20477;-77
2022/12/11 03:30:24;;;;;;;42.77;20.53;;;2.90;99.90;;;;;;4996296;28;20429;-77
2022/12/11 03:32:57;;;;;;;37.10;20.60;;;2.90;99.90;;;;;;4996044;28;20440;-78
2022/12/11 03:35:30;;;;;;;47.37;21.33;;;3.00;99.90;;;;;;4995760;28;20509;-77
2022/12/11 03:38:02;;;;;;;47.60;22.53;;;2.90;99.90;;;;;;4996069;28;20440;-78
2022/12/11 03:40:32;;;;;;;39.80;20.30;;;2.90;99.90;;;;;;4996116;28;20426;-78
2022/12/11 03:43:00;;;;;;;45.07;23.80;;;2.90;99.90;;;;;;4996537;28;20488;-77
2022/12/11 03:45:29;;;;;;;46.23;22.10;;;3.00;99.90;;;;;;4995228;28;20469;-78
2022/12/11 03:47:59;;;;;;;47.17;23.57;;;3.00;99.90;;;;;;4995781;28;20846;-77
2022/12/11 03:50:28;;;;;;;57.17;23.23;;;3.00;99.90;;;;;;4995412;28;20433;-77
2022/12/11 03:52:55;;;;;;;46.57;23.00;;;3.00;99.90;;;;;;4995338;28;20440;-77
2022/12/11 03:55:23;;;;;;;48.47;22.90;;;3.00;99.90;;;;;;4995051;28;20516;-77
2022/12/11 03:57:50;;;;;;;59.90;25.43;;;3.10;99.90;;;;;;4995328;28;20444;-77
2022/12/11 04:00:19;;;;;;;45.97;22.93;;;3.10;99.90;;;;;;4995250;28;20449;-77
2022/12/11 04:03:11;;;;;;;42.67;22.23;;;3.10;99.80;;;;;;4995153;28;20827;-77
2022/12/11 04:05:35;;;;;;;51.67;23.53;;;3.10;99.90;;;;;;4994671;28;20469;-78
2022/12/11 04:08:02;;;;;;;41.00;22.30;;;3.10;99.80;;;;;;4995107;28;20485;-78
2022/12/11 04:10:29;;;;;;;49.03;23.63;;;3.10;99.80;;;;;;4995113;28;20480;-77
2022/12/11 04:12:55;;;;;;;35.90;20.83;;;3.10;99.60;;;;;;4995027;28;20445;-77
2022/12/11 04:15:21;;;;;;;37.53;19.43;;;3.10;99.60;;;;;;4994746;28;20457;-78
2022/12/11 04:26:07;;;;;;;32.80;18.80;;;3.00;99.20;;;;;;4994637;28;20490;-78
2022/12/11 04:28:35;;;;;;;34.10;19.37;;;3.00;99.30;;;;;;4995297;28;20464;-77
2022/12/11 04:31:02;;;;;;;35.87;18.30;;;3.00;99.50;;;;;;4995434;28;20456;-77
2022/12/11 04:33:29;;;;;;;33.50;17.57;;;2.90;98.90;;;;;;4994589;28;20449;-77
2022/12/11 04:35:58;;;;;;;31.80;17.47;;;2.80;98.90;;;;;;4994345;28;20962;-78
2022/12/11 04:38:26;;;;;;;37.13;18.10;;;2.70;99.00;;;;;;4994548;28;20437;-77
2022/12/11 04:40:58;;;;;;;33.23;18.50;;;2.60;99.10;;;;;;4994635;28;20456;-78
2022/12/11 04:43:25;;;;;;;34.30;18.80;;;2.60;99.40;;;;;;4994530;28;20906;-75
2022/12/11 04:45:59;;;;;;;40.60;17.83;;;2.50;99.50;;;;;;4994412;28;20464;-75
2022/12/11 04:48:26;;;;;;;36.90;19.07;;;2.50;99.70;;;;;;4995263;28;20789;-75
2022/12/11 04:50:53;;;;;;;34.27;18.57;;;2.60;99.90;;;;;;4994229;28;20456;-77
2022/12/11 04:53:19;;;;;;;35.80;19.80;;;2.50;99.90;;;;;;4994362;28;20452;-76
2022/12/11 04:55:47;;;;;;;34.70;17.80;;;2.50;99.90;;;;;;4994061;28;20821;-76
2022/12/11 04:58:14;;;;;;;39.40;19.67;;;2.50;99.90;;;;;;4993797;28;20464;-77
2022/12/11 05:00:41;;;;;;;34.53;20.00;;;2.50;99.90;;;;;;4994002;28;20473;-77
2022/12/11 05:03:08;;;;;;;36.10;19.13;;;2.50;99.90;;;;;;4994096;28;20997;-77
2022/12/11 05:05:35;;;;;;;38.50;19.30;;;2.60;99.90;;;;;;4994205;28;20473;-77
2022/12/11 05:08:01;;;;;;;36.67;18.57;;;2.60;99.90;;;;;;4994303;28;20484;-77
2022/12/11 05:10:28;;;;;;;35.67;19.33;;;2.70;99.90;;;;;;4994034;28;20453;-77
2022/12/11 05:12:56;;;;;;;35.57;20.00;;;2.70;99.90;;;;;;4993808;28;20456;-76
2022/12/11 05:15:23;;;;;;;36.80;18.90;;;2.80;99.90;;;;;;4994134;28;20468;-77
2022/12/11 05:17:50;;;;;;;35.87;19.40;;;2.80;99.90;;;;;;4997621;28;20943;-77
2022/12/11 05:20:17;;;;;;;34.07;19.00;;;2.80;99.90;;;;;;4998092;28;20847;-77
2022/12/11 05:22:46;;;;;;;34.40;18.43;;;2.90;99.90;;;;;;4998058;28;20507;-77
2022/12/11 05:25:12;;;;;;;37.43;20.17;;;2.90;99.90;;;;;;4997538;28;20485;-77
2022/12/11 05:27:39;;;;;;;38.17;20.03;;;2.90;99.90;;;;;;4997651;28;20973;-76
2022/12/11 05:30:09;;;;;;;37.70;20.40;;;2.90;99.90;;;;;;4997974;28;20444;-76
2022/12/11 05:32:36;;;;;;;43.93;21.80;;;3.00;99.90;;;;;;4997926;28;20478;-76
2022/12/11 05:35:03;;;;;;;36.60;19.90;;;3.00;99.90;;;;;;4997981;28;20876;-76
2022/12/11 05:37:30;;;;;;;47.70;22.20;;;3.00;99.90;;;;;;4997841;28;20887;-77
2022/12/11 05:39:56;;;;;;;39.90;20.80;;;3.00;99.90;;;;;;4997963;28;20470;-77
2022/12/11 05:42:23;;;;;;;36.37;19.03;;;3.00;99.90;;;;;;4998263;28;20453;-76
2022/12/11 05:44:50;;;;;;;44.13;20.73;;;3.00;99.80;;;;;;4997543;28;20986;-77
2022/12/11 05:47:19;;;;;;;35.60;18.83;;;3.10;99.70;;;;;;4997583;28;20482;-77
2022/12/11 05:49:47;;;;;;;41.27;19.50;;;3.00;99.60;;;;;;4997932;28;20488;-78
2022/12/11 05:52:15;;;;;;;36.27;17.93;;;3.00;99.60;;;;;;4997709;28;20442;-76
2022/12/11 05:54:43;;;;;;;38.47;21.13;;;3.10;99.60;;;;;;4997432;28;20993;-76
2022/12/11 05:57:10;;;;;;;35.27;18.50;;;3.10;99.40;;;;;;4997612;28;20827;-77
2022/12/11 05:59:36;;;;;;;34.07;18.10;;;3.10;99.30;;;;;;4997815;28;20464;-77
2022/12/11 06:02:03;;;;;;;32.13;18.67;;;3.10;99.30;;;;;;4997492;28;20834;-77
2022/12/11 06:04:31;;;;;;;40.67;18.63;;;3.10;99.20;;;;;;4997363;28;20466;-77
2022/12/11 06:06:58;;;;;;;37.10;20.90;;;3.10;99.10;;;;;;4997174;28;20481;-76
2022/12/11 06:09:25;;;;;;;32.70;17.33;;;3.10;99.10;;;;;;4997166;28;20461;-77
2022/12/11 06:11:52;;;;;;;37.70;19.00;;;3.10;99.10;;;;;;4997205;28;20455;-76
2022/12/11 06:14:19;;;;;;;29.30;18.10;;;3.10;99.00;;;;;;4997366;28;20474;-78
2022/12/11 06:16:45;;;;;;;34.57;17.13;;;3.10;99.00;;;;;;4997032;28;20976;-77
2022/12/11 06:19:14;;;;;;;32.70;18.00;;;3.10;99.00;;;;;;4997045;28;20461;-76
2022/12/11 06:21:42;;;;;;;32.83;17.83;;;3.10;99.00;;;;;;4997058;28;20804;-76
2022/12/11 06:24:11;;;;;;;33.63;16.83;;;3.10;99.00;;;;;;4996554;28;21024;-76
2022/12/11 06:26:38;;;;;;;28.07;16.53;;;3.10;98.90;;;;;;4996719;28;20464;-76
2022/12/11 06:29:05;;;;;;;34.03;16.10;;;3.10;98.80;;;;;;4995512;28;20496;-76
2022/12/11 06:31:31;;;;;;;27.03;17.13;;;3.10;98.80;;;;;;4996872;28;20456;-76
2022/12/11 06:33:58;;;;;;;31.00;16.77;;;3.20;98.90;;;;;;4996702;28;20481;-76
2022/12/11 06:36:25;;;;;;;34.80;15.60;;;3.20;98.80;;;;;;4996690;28;20579;-76
2022/12/11 06:38:55;;;;;;;30.47;16.27;;;3.10;98.70;;;;;;4996705;28;20441;-76
2022/12/11 06:41:22;;;;;;;29.17;15.33;;;3.20;98.80;;;;;;4997020;28;20469;-76
2022/12/11 06:43:49;;;;;;;28.80;16.00;;;3.20;98.70;;;;;;4996487;28;20473;-76
2022/12/11 06:46:18;;;;;;;31.00;17.10;;;3.20;98.50;;;;;;4996657;28;20521;-77
2022/12/11 06:48:46;;;;;;;30.80;16.27;;;3.20;98.40;;;;;;4996453;28;20508;-77
2022/12/11 06:51:15;;;;;;;30.43;16.53;;;3.20;98.40;;;;;;4996413;28;20453;-77
2022/12/11 06:53:42;;;;;;;26.73;13.70;;;3.20;98.30;;;;;;4996359;28;20507;-77
2022/12/11 06:56:13;;;;;;;27.97;15.60;;;3.20;98.40;;;;;;5014926;28;20995;-77
2022/12/11 06:58:40;;;;;;;28.33;15.40;;;3.20;98.30;;;;;;5016192;28;20502;-77
2022/12/11 07:01:15;;;;;;;23.10;14.47;;;3.20;98.40;;;;;;5015836;28;20437;-76
2022/12/11 07:03:41;;;;;;;23.93;14.27;;;3.20;98.40;;;;;;5015870;28;20541;-76
2022/12/11 07:06:08;;;;;;;24.57;14.83;;;3.10;98.30;;;;;;5016184;28;20444;-77
2022/12/11 07:08:35;;;;;;;25.23;13.60;;;3.20;98.40;;;;;;5015775;28;20504;-77
2022/12/11 07:11:05;;;;;;;22.83;13.50;;;3.20;98.30;;;;;;5015751;28;20814;-77
2022/12/11 07:13:34;;;;;;;23.73;14.30;;;3.20;98.20;;;;;;5015281;28;20439;-78
2022/12/11 07:16:03;;;;;;;26.33;13.50;;;3.20;98.00;;;;;;5015831;28;20447;-77
2022/12/11 07:18:30;;;;;;;22.23;13.50;;;3.10;98.00;;;;;;5016305;28;20452;-76
2022/12/11 07:20:58;;;;;;;21.00;12.67;;;3.10;98.10;;;;;;5016532;28;20453;-76
2022/12/11 07:23:27;;;;;;;24.53;13.60;;;3.10;97.80;;;;;;5015645;28;20889;-76
2022/12/11 07:25:53;;;;;;;21.43;13.80;;;3.00;97.60;;;;;;4999297;28;20474;-77
2022/12/11 07:28:20;;;;;;;22.47;14.07;;;3.00;97.60;;;;;;4995821;28;20486;-76
2022/12/11 07:30:48;;;;;;;20.90;14.20;;;3.00;97.60;;;;;;4995490;28;20539;-76
2022/12/11 07:33:15;;;;;;;19.63;13.87;;;2.90;97.40;;;;;;4995589;28;20475;-76
2022/12/11 07:35:42;;;;;;;21.87;13.40;;;2.90;97.80;;;;;;4995764;28;20446;-76
2022/12/11 07:38:09;;;;;;;20.30;13.30;;;2.80;97.50;;;;;;4995638;28;20442;-76
2022/12/11 07:40:35;;;;;;;19.90;12.50;;;2.80;97.50;;;;;;4994888;28;20987;-76
2022/12/11 07:43:02;;;;;;;21.27;12.20;;;2.80;97.40;;;;;;4996960;28;20449;-76
2022/12/11 07:45:29;;;;;;;17.00;12.60;;;2.70;97.30;;;;;;5005813;28;20469;-76
2022/12/11 07:47:57;;;;;;;18.90;12.40;;;2.70;97.40;;;;;;5007394;28;20485;-76
2022/12/11 07:50:24;;;;;;;21.03;12.33;;;2.70;97.40;;;;;;5001195;28;20497;-76
2022/12/11 07:52:52;;;;;;;17.80;12.53;;;2.70;97.50;;;;;;4997476;28;20452;-76
2022/12/11 07:55:19;;;;;;;19.90;12.17;;;2.70;97.50;;;;;;4996628;28;20483;-76
2022/12/11 07:57:46;;;;;;;17.23;11.30;;;2.60;97.40;;;;;;4995761;28;20448;-77
2022/12/11 08:00:13;;;;;;;21.73;11.63;;;2.60;97.20;;;;;;4995720;28;20865;-77
2022/12/11 08:02:40;;;;;;;19.87;12.17;;;2.60;97.20;;;;;;4995727;28;20445;-77
2022/12/11 08:05:09;;;;;;;20.77;11.50;;;2.50;97.10;;;;;;4995528;28;20468;-77
2022/12/11 08:07:36;;;;;;;19.97;12.30;;;2.50;97.30;;;;;;4995858;28;20520;-77
2022/12/11 08:10:04;;;;;;;17.60;12.20;;;2.50;97.50;;;;;;4995574;28;20429;-77
2022/12/11 08:12:30;;;;;;;18.87;12.30;;;2.50;97.40;;;;;;4994984;28;20453;-77
2022/12/11 08:14:57;;;;;;;20.97;13.90;;;2.40;97.50;;;;;;4995215;28;20468;-77
2022/12/11 08:17:24;;;;;;;21.00;12.90;;;2.40;97.50;;;;;;4995115;28;20429;-77
2022/12/11 08:19:50;;;;;;;20.90;13.73;;;2.40;97.70;;;;;;4994935;28;20448;-77
2022/12/11 08:22:18;;;;;;;18.43;11.73;;;2.40;97.90;;;;;;4994854;28;20532;-77
2022/12/11 08:24:46;;;;;;;20.60;12.47;;;2.40;97.90;;;;;;4995263;28;20489;-77
2022/12/11 08:27:13;;;;;;;19.83;12.50;;;2.40;97.80;;;;;;4994450;28;20473;-77
2022/12/11 08:29:40;;;;;;;16.47;11.47;;;2.40;97.90;;;;;;4994838;28;20444;-77
2022/12/11 08:32:07;;;;;;;18.00;11.27;;;2.40;97.80;;;;;;4994516;28;20948;-78
2022/12/11 08:34:33;;;;;;;16.83;11.43;;;2.30;97.60;;;;;;4994646;28;20469;-78
2022/12/11 08:37:00;;;;;;;19.40;13.00;;;2.40;97.90;;;;;;4994449;28;20433;-78
2022/12/11 08:39:28;;;;;;;20.27;12.37;;;2.40;97.80;;;;;;4994558;28;20452;-78
2022/12/11 08:41:56;;;;;;;18.57;12.33;;;2.40;97.60;;;;;;4994426;28;20451;-77
2022/12/11 08:44:23;;;;;;;17.90;11.33;;;2.40;97.60;;;;;;4994491;28;20481;-77
2022/12/11 08:46:50;;;;;;;19.27;12.50;;;2.30;97.60;;;;;;4995067;28;20433;-77
2022/12/11 08:49:17;;;;;;;19.17;12.20;;;2.30;97.60;;;;;;4994677;28;20491;-77
2022/12/11 08:51:44;;;;;;;20.37;13.23;;;2.30;97.70;;;;;;4993653;28;21062;-78
2022/12/11 08:54:10;;;;;;;24.03;15.40;;;2.40;97.90;;;;;;4994340;28;20499;-77
2022/12/11 08:56:38;;;;;;;24.57;15.17;;;2.30;97.80;;;;;;4994259;28;20499;-77
2022/12/11 08:59:05;;;;;;;28.60;14.97;;;2.40;97.90;;;;;;4994236;28;20449;-77
2022/12/11 09:01:32;;;;;;;27.20;16.13;;;2.40;97.90;;;;;;4994380;28;20444;-78
2022/12/11 09:03:59;;;;;;;27.97;16.20;;;2.40;97.80;;;;;;4993947;28;21000;-77
2022/12/11 09:06:28;;;;;;;22.87;16.23;;;2.40;97.60;;;;;;4994298;28;20449;-77
2022/12/11 09:08:55;;;;;;;27.10;15.47;;;2.50;97.60;;;;;;4994266;28;20487;-77
2022/12/11 09:11:26;;;;;;;26.00;16.13;;;2.50;97.70;;;;;;4994090;28;20967;-77
2022/12/11 09:13:55;;;;;;;23.33;14.37;;;2.50;97.70;;;;;;4994149;28;20980;-77
2022/12/11 09:16:23;;;;;;;26.50;16.00;;;2.60;97.70;;;;;;4994196;28;20453;-77
2022/12/11 09:18:52;;;;;;;29.03;13.97;;;2.50;97.30;;;;;;4994295;28;20467;-77
2022/12/11 09:21:21;;;;;;;22.60;15.30;;;2.50;97.50;;;;;;4994187;28;20464;-77
2022/12/11 09:23:49;;;;;;;26.10;16.83;;;2.50;97.70;;;;;;4994378;28;20479;-77
2022/12/11 09:26:17;;;;;;;22.87;15.60;;;2.50;97.50;;;;;;4994023;28;20463;-77
2022/12/11 09:28:45;;;;;;;22.30;13.77;;;2.50;97.30;;;;;;4993752;28;21040;-77
2022/12/11 09:31:15;;;;;;;20.57;13.70;;;2.50;97.50;;;;;;4994455;28;20436;-76
2022/12/11 09:33:43;;;;;;;21.97;14.17;;;2.50;97.70;;;;;;4994190;28;20476;-77
2022/12/11 09:36:11;;;;;;;26.03;15.53;;;2.40;97.60;;;;;;4995397;28;20452;-76
2022/12/11 09:38:38;;;;;;;23.30;14.10;;;2.40;97.70;;;;;;4995940;28;20480;-77
2022/12/11 09:41:29;;;;;;;22.57;14.43;;;2.40;97.60;;;;;;5004010;28;20437;-76
2022/12/11 09:44:02;;;;;;;23.40;14.97;;;2.40;97.70;;;;;;5004964;28;20472;-76
2022/12/11 09:46:32;;;;;;;24.20;16.10;;;2.40;97.50;;;;;;4997282;28;20464;-76
2022/12/11 09:49:00;;;;;;;23.37;14.57;;;2.30;97.80;;;;;;4995535;28;20468;-77
2022/12/11 09:51:32;;;;;;;22.10;13.80;;;2.30;97.70;;;;;;4995421;28;20921;-77
2022/12/11 09:54:02;;;;;;;24.20;14.40;;;2.30;97.70;;;;;;4994618;28;20472;-77
2022/12/11 09:56:38;;;;;;;20.47;13.83;;;2.30;97.70;;;;;;4994685;28;20472;-77
2022/12/11 09:59:13;;;;;;;24.00;14.87;;;2.30;97.80;;;;;;4994621;28;20417;-77
2022/12/11 10:01:49;;;;;;;27.67;15.90;;;2.40;97.90;;;;;;4995053;28;20429;-76
2022/12/11 10:04:35;;;;;;;21.33;13.67;;;2.50;97.90;;;;;;4998262;28;20840;-76
2022/12/11 10:07:10;;;;;;;23.20;15.33;;;2.60;97.80;;;;;;4998675;28;20428;-76
2022/12/11 10:09:45;;;;;;;21.90;14.60;;;2.60;97.30;;;;;;4998255;28;20479;-76
2022/12/11 10:12:25;;;;;;;27.17;16.77;;;2.70;97.20;;;;;;4997714;28;20429;-77
2022/12/11 10:15:05;;;;;;;22.47;14.30;;;2.80;97.30;;;;;;4998250;28;20472;-76
2022/12/11 10:17:36;;;;;;;24.83;15.90;;;2.70;97.10;;;;;;4998374;28;20448;-76
2022/12/11 10:20:23;;;;;;;26.60;15.40;;;2.80;97.10;;;;;;4998349;28;20433;-76
2022/12/11 10:22:51;;;;;;;25.43;16.70;;;2.80;97.00;;;;;;4997394;28;20432;-77
2022/12/11 10:25:21;;;;;;;29.70;16.57;;;2.80;97.10;;;;;;4997284;28;20465;-76
2022/12/11 10:27:50;;;;;;;29.03;16.83;;;2.80;97.00;;;;;;4997352;28;20497;-76
2022/12/11 10:30:20;;;;;;;27.03;17.10;;;2.90;96.90;;;;;;4997196;28;20440;-76
2022/12/11 10:33:02;;;;;;;32.87;18.00;;;2.90;96.90;;;;;;4996660;28;20952;-76
2022/12/11 10:35:36;;;;;;;32.70;17.60;;;2.90;96.90;;;;;;4997830;28;20477;-77
2022/12/11 10:38:13;;;;;;;27.00;17.10;;;2.90;96.90;;;;;;4997295;28;20433;-77
2022/12/11 10:40:43;;;;;;;24.57;15.30;;;2.90;96.80;;;;;;4997297;28;20432;-76
2022/12/11 10:43:10;;;;;;;29.87;17.07;;;2.90;96.60;;;;;;4997338;28;20467;-76
2022/12/11 10:45:37;;;;;;;26.40;17.60;;;3.00;96.70;;;;;;4997038;28;20469;-76
2022/12/11 10:48:10;;;;;;;22.73;15.10;;;2.90;96.50;;;;;;5013346;28;20483;-77
2022/12/11 10:50:37;;;;;;;28.10;15.57;;;3.00;96.80;;;;;;5016356;28;20437;-78
2022/12/11 10:53:05;;;;;;;29.43;16.17;;;2.90;96.50;;;;;;5015132;28;20539;-77
2022/12/11 10:55:40;;;;;;;30.63;16.77;;;2.90;96.70;;;;;;5016285;28;20531;-77
2022/12/11 10:58:12;;;;;;;23.77;15.73;;;2.90;96.70;;;;;;5016585;28;20460;-77
2022/12/11 11:00:41;;;;;;;27.37;16.57;;;2.90;96.70;;;;;;5016395;28;20440;-77
2022/12/11 11:03:21;;;;;;;26.33;15.90;;;2.90;96.40;;;;;;5016247;28;20462;-76
2022/12/11 11:05:49;;;;;;;30.00;15.53;;;2.90;96.60;;;;;;5014206;28;20809;-77
2022/12/11 11:08:19;;;;;;;28.83;16.97;;;2.90;96.60;;;;;;4996374;28;20559;-77
2022/12/11 11:10:53;;;;;;;29.30;17.73;;;2.90;96.60;;;;;;4996418;28;20496;-77
2022/12/11 11:13:22;;;;;;;34.37;18.70;;;2.90;96.70;;;;;;4996443;28;20815;-77
2022/12/11 11:15:49;;;;;;;27.47;17.30;;;3.00;96.60;;;;;;4996089;28;20524;-76
2022/12/11 11:18:25;;;;;;;25.40;15.10;;;3.00;96.50;;;;;;4996123;28;20466;-76
2022/12/11 11:20:55;;;;;;;24.50;15.77;;;3.10;96.60;;;;;;4996185;28;20430;-76
2022/12/11 11:23:23;;;;;;;26.10;17.00;;;3.10;96.20;;;;;;4996940;28;20484;-77
2022/12/11 11:25:52;;;;;;;27.00;18.67;;;3.10;96.20;;;;;;4996319;28;20468;-76
2022/12/11 11:28:22;;;;;;;31.67;17.07;;;3.00;96.10;;;;;;4996000;28;20926;-77
2022/12/11 11:30:58;;;;;;;28.57;18.60;;;3.10;96.20;;;;;;4996103;28;20456;-76
2022/12/11 11:33:28;;;;;;;32.00;18.53;;;3.10;96.20;;;;;;4995965;28;20462;-76
2022/12/11 11:35:57;;;;;;;34.93;17.27;;;3.20;96.20;;;;;;4995753;28;20821;-76
2022/12/11 11:38:27;;;;;;;34.67;17.27;;;3.20;96.10;;;;;;4995826;28;20449;-76
2022/12/11 11:41:00;;;;;;;28.27;16.53;;;3.30;96.00;;;;;;4995452;28;20929;-76
2022/12/11 11:43:35;;;;;;;28.20;16.00;;;3.30;95.80;;;;;;4996275;28;20440;-77
2022/12/11 11:46:07;;;;;;;28.77;16.40;;;3.50;95.70;;;;;;4995588;28;20460;-76
2022/12/11 11:48:53;;;;;;;27.83;16.90;;;3.60;95.60;;;;;;5006550;28;20472;-77
2022/12/11 11:51:26;;;;;;;26.37;16.27;;;3.70;95.40;;;;;;5010540;28;20469;-76
2022/12/11 11:53:58;;;;;;;24.87;15.63;;;3.80;95.30;;;;;;4995320;28;20489;-77
2022/12/11 11:56:27;;;;;;;26.17;15.47;;;3.90;94.90;;;;;;4995563;28;20440;-77
2022/12/11 11:59:01;;;;;;;29.90;17.73;;;3.90;94.50;;;;;;4995183;28;20450;-78
2022/12/11 12:01:37;;;;;;;25.00;16.70;;;4.00;94.20;;;;;;4995449;28;20449;-77
2022/12/11 12:04:05;;;;;;;29.87;17.63;;;4.00;94.00;;;;;;4995263;28;20468;-77
2022/12/11 12:06:55;;;;;;;27.23;16.13;;;4.10;93.90;;;;;;4995474;28;20460;-76
2022/12/11 12:09:37;;;;;;;23.67;14.00;;;4.10;93.80;;;;;;4995189;28;20477;-77
2022/12/11 12:12:17;;;;;;;25.90;14.73;;;4.10;93.20;;;;;;4996046;28;20450;-78
2022/12/11 12:14:58;;;;;;;24.83;15.40;;;4.20;93.00;;;;;;4995525;28;20492;-77
2022/12/11 12:17:34;;;;;;;24.27;15.00;;;4.10;92.80;;;;;;4995565;28;20450;-78
2022/12/11 12:20:24;;;;;;;25.13;16.20;;;4.20;92.90;;;;;;4996472;28;20915;-78
2022/12/11 12:23:08;;;;;;;23.57;14.90;;;4.20;93.00;;;;;;4995057;28;20445;-77
2022/12/11 12:25:40;;;;;;;24.83;15.63;;;4.20;92.90;;;;;;4994659;28;20484;-78
2022/12/11 12:28:19;;;;;;;23.80;15.50;;;4.30;93.00;;;;;;4995002;28;20452;-77
2022/12/11 12:30:57;;;;;;;23.20;14.13;;;4.30;93.20;;;;;;4994526;28;20800;-77
2022/12/11 12:33:34;;;;;;;24.10;14.67;;;4.40;93.20;;;;;;4994940;28;20445;-78
2022/12/11 12:36:11;;;;;;;23.20;14.93;;;4.50;93.10;;;;;;4994859;28;20496;-78
2022/12/11 12:38:48;;;;;;;24.43;16.10;;;4.50;92.90;;;;;;4995555;28;20442;-78
2022/12/11 12:41:20;;;;;;;25.17;14.80;;;4.50;92.60;;;;;;4996068;28;20438;-78
2022/12/11 12:43:59;;;;;;;22.87;15.37;;;4.50;92.40;;;;;;4996157;28;20549;-78
2022/12/11 12:46:40;;;;;;;23.73;14.17;;;4.40;92.20;;;;;;4995866;28;20443;-78
2022/12/11 12:49:14;;;;;;;23.33;15.03;;;4.50;92.40;;;;;;4995452;28;20973;-78
2022/12/11 12:51:43;;;;;;;26.63;15.57;;;4.50;92.30;;;;;;4995729;28;20806;-78
2022/12/11 12:54:15;;;;;;;26.90;14.17;;;4.50;92.20;;;;;;4995352;28;20975;-78
2022/12/11 12:56:44;;;;;;;25.90;16.00;;;4.50;92.20;;;;;;4996137;28;20914;-78
2022/12/11 12:59:20;;;;;;;25.90;15.50;;;4.50;92.20;;;;;;4996295;28;20434;-78